This is the latest recevied weather packets stored in our database for station/object TG5ALY-16. If no packets are shown the sender has not sent any weather packets the latest 10 day(s).
| Time | Temp. | Humidity | Pressure | Rain* | Wind** | Luminosity | Snow |
|---|---|---|---|---|---|---|---|
| 1777921195 | 20.56° C | 67% | 1015 hPa | 0.25 mm | - | - | - |
| 1777919393 | 18.89° C | 71% | 1016 hPa | 0 mm | - | - | - |
| 1777918191 | 18.89° C | 69% | 1016 hPa | 0 mm | - | - | - |
| 1777916390 | 18.89° C | 71% | 1016 hPa | 0 mm | - | - | - |
| 1777915789 | 18.33° C | 72% | 1017 hPa | 0 mm | - | - | - |
| 1777913987 | 17.22° C | 76% | 1017 hPa | 0 mm | - | - | - |
| 1777912785 | 17.22° C | 76% | 1017 hPa | 0 mm | - | - | - |
| 1777909181 | 17.78° C | 73% | 1017 hPa | 0 mm | - | - | - |
| 1777908581 | 17.78° C | 72% | 1017 hPa | 0 mm | - | - | - |
| 1777907379 | 17.22° C | 74% | 1017 hPa | 0 mm | - | - | - |
| 1777906779 | 17.22° C | 75% | 1018 hPa | 0 mm | - | - | - |
| 1777905577 | 16.67° C | 77% | 1018 hPa | 0 mm | - | - | - |
| 1777904977 | 17.78° C | 77% | 1018 hPa | 0 mm | - | - | - |
| 1777903775 | 16.67° C | 79% | 1018 hPa | 0 mm | - | - | - |
| 1777901373 | 10.56° C | 93% | 1018 hPa | 0 mm | - | - | - |
| 1777900772 | 10.56° C | 93% | 1018 hPa | 0 mm | - | - | - |
| 1777899571 | 10.56° C | 93% | 1019 hPa | 0 mm | - | - | - |
| 1777898970 | 10.56° C | 94% | 1019 hPa | 0 mm | - | - | - |
| 1777898369 | 10.56° C | 94% | 1019 hPa | 0 mm | - | - | - |
| 1777897769 | 10° C | 94% | 1019 hPa | 0 mm | - | - | - |
| 1777897168 | 10° C | 94% | 1019 hPa | 0 mm | - | - | - |
| 1777896567 | 10° C | 94% | 1019 hPa | 0 mm | - | - | - |
| 1777895966 | 10° C | 94% | 1019 hPa | 0 mm | - | - | - |
| 1777895365 | 10° C | 95% | 1019 hPa | 0 mm | - | - | - |
| 1777894764 | 10° C | 95% | 1019 hPa | 0 mm | - | - | - |
* Rain latest hour (hover to see other rain measurements)
** Current wind speed in m/s (hover to see current wind gust speed)